sensor_id;sensor_type;location;lat;lon;timestamp;pressure;altitude;pressure_sealevel;temperature;humidity
35989;BME280;22064;42.672;23.282;2023-09-08T00:01:55;95158.19;;;19.08;100.00
35989;BME280;22064;42.672;23.282;2023-09-08T00:04:21;95175.88;;;19.07;100.00
35989;BME280;22064;42.672;23.282;2023-09-08T00:06:48;95170.38;;;19.04;100.00
35989;BME280;22064;42.672;23.282;2023-09-08T00:09:14;95176.34;;;19.09;100.00
35989;BME280;22064;42.672;23.282;2023-09-08T00:11:40;95164.03;;;19.05;100.00
35989;BME280;22064;42.672;23.282;2023-09-08T00:14:05;95169.13;;;18.96;100.00
35989;BME280;22064;42.672;23.282;2023-09-08T00:16:31;95158.88;;;18.95;100.00
35989;BME280;22064;42.672;23.282;2023-09-08T00:18:57;95174.13;;;18.98;100.00
35989;BME280;22064;42.672;23.282;2023-09-08T00:21:25;95154.75;;;18.83;100.00
35989;BME280;22064;42.672;23.282;2023-09-08T00:23:52;95161.22;;;18.96;100.00
35989;BME280;22064;42.672;23.282;2023-09-08T00:26:18;95161.22;;;18.96;100.00
35989;BME280;22064;42.672;23.282;2023-09-08T00:28:44;95171.53;;;18.92;100.00
35989;BME280;22064;42.672;23.282;2023-09-08T00:31:10;95152.00;;;18.93;100.00
35989;BME280;22064;42.672;23.282;2023-09-08T00:33:36;95162.41;;;18.85;100.00
35989;BME280;22064;42.672;23.282;2023-09-08T00:36:03;95163.41;;;18.89;100.00
35989;BME280;22064;42.672;23.282;2023-09-08T00:38:29;95158.69;;;18.86;100.00
35989;BME280;22064;42.672;23.282;2023-09-08T00:40:54;95154.53;;;18.80;100.00
35989;BME280;22064;42.672;23.282;2023-09-08T00:43:20;95176.59;;;18.89;100.00
35989;BME280;22064;42.672;23.282;2023-09-08T00:45:47;95161.94;;;18.78;100.00
35989;BME280;22064;42.672;23.282;2023-09-08T00:48:13;95165.53;;;18.87;100.00
35989;BME280;22064;42.672;23.282;2023-09-08T00:50:39;95156.88;;;18.81;100.00
35989;BME280;22064;42.672;23.282;2023-09-08T00:53:06;95154.50;;;18.85;100.00
35989;BME280;22064;42.672;23.282;2023-09-08T00:55:33;95159.28;;;18.78;100.00
35989;BME280;22064;42.672;23.282;2023-09-08T00:58:00;95146.19;;;18.73;100.00
35989;BME280;22064;42.672;23.282;2023-09-08T01:00:26;95144.56;;;18.72;100.00
35989;BME280;22064;42.672;23.282;2023-09-08T01:02:52;95155.28;;;18.85;100.00
35989;BME280;22064;42.672;23.282;2023-09-08T01:05:19;95157.97;;;18.80;100.00
35989;BME280;22064;42.672;23.282;2023-09-08T01:07:46;95153.53;;;18.76;100.00
35989;BME280;22064;42.672;23.282;2023-09-08T01:10:14;95160.94;;;18.74;100.00
35989;BME280;22064;42.672;23.282;2023-09-08T01:12:40;95158.81;;;18.70;100.00
35989;BME280;22064;42.672;23.282;2023-09-08T01:15:06;95159.38;;;18.73;100.00
35989;BME280;22064;42.672;23.282;2023-09-08T01:17:36;95152.00;;;18.69;100.00
35989;BME280;22064;42.672;23.282;2023-09-08T01:20:10;95151.47;;;18.73;100.00
35989;BME280;22064;42.672;23.282;2023-09-08T01:25:40;95154.03;;;18.78;100.00
35989;BME280;22064;42.672;23.282;2023-09-08T01:28:10;95155.63;;;18.79;100.00
35989;BME280;22064;42.672;23.282;2023-09-08T01:30:38;95154.59;;;18.75;100.00
35989;BME280;22064;42.672;23.282;2023-09-08T01:33:05;95161.38;;;18.81;100.00
35989;BME280;22064;42.672;23.282;2023-09-08T01:35:31;95148.75;;;18.78;100.00
35989;BME280;22064;42.672;23.282;2023-09-08T01:37:59;95154.25;;;18.81;100.00
35989;BME280;22064;42.672;23.282;2023-09-08T01:40:25;95139.84;;;18.68;100.00
35989;BME280;22064;42.672;23.282;2023-09-08T01:42:51;95131.22;;;18.63;100.00
35989;BME280;22064;42.672;23.282;2023-09-08T01:45:17;95145.19;;;18.63;100.00
35989;BME280;22064;42.672;23.282;2023-09-08T01:47:42;95141.25;;;18.61;100.00
35989;BME280;22064;42.672;23.282;2023-09-08T01:50:09;95142.56;;;18.63;100.00
35989;BME280;22064;42.672;23.282;2023-09-08T01:52:34;95142.00;;;18.66;100.00
35989;BME280;22064;42.672;23.282;2023-09-08T01:55:01;95136.72;;;18.66;100.00
35989;BME280;22064;42.672;23.282;2023-09-08T01:57:28;95137.28;;;18.63;100.00
35989;BME280;22064;42.672;23.282;2023-09-08T01:59:54;95142.78;;;18.67;100.00
35989;BME280;22064;42.672;23.282;2023-09-08T02:02:20;95129.97;;;18.55;100.00
35989;BME280;22064;42.672;23.282;2023-09-08T02:04:47;95137.13;;;18.50;100.00
35989;BME280;22064;42.672;23.282;2023-09-08T02:07:13;95139.03;;;18.44;100.00
35989;BME280;22064;42.672;23.282;2023-09-08T02:09:40;95139.38;;;18.37;100.00
35989;BME280;22064;42.672;23.282;2023-09-08T02:12:06;95139.69;;;18.31;100.00
35989;BME280;22064;42.672;23.282;2023-09-08T02:14:32;95138.69;;;18.27;100.00
35989;BME280;22064;42.672;23.282;2023-09-08T02:16:58;95126.31;;;18.22;100.00
35989;BME280;22064;42.672;23.282;2023-09-08T02:19:23;95122.69;;;18.18;100.00
35989;BME280;22064;42.672;23.282;2023-09-08T02:21:49;95136.09;;;18.21;100.00
35989;BME280;22064;42.672;23.282;2023-09-08T02:24:15;95127.69;;;18.19;100.00
35989;BME280;22064;42.672;23.282;2023-09-08T02:26:41;95132.03;;;18.05;100.00
35989;BME280;22064;42.672;23.282;2023-09-08T02:29:08;95132.00;;;18.10;100.00
35989;BME280;22064;42.672;23.282;2023-09-08T02:31:34;95117.31;;;17.99;100.00
35989;BME280;22064;42.672;23.282;2023-09-08T02:34:02;95123.59;;;18.03;100.00
35989;BME280;22064;42.672;23.282;2023-09-08T02:36:29;95119.41;;;18.02;100.00
35989;BME280;22064;42.672;23.282;2023-09-08T02:38:56;95119.72;;;17.95;100.00
35989;BME280;22064;42.672;23.282;2023-09-08T02:41:23;95117.66;;;17.87;100.00
35989;BME280;22064;42.672;23.282;2023-09-08T02:43:49;95102.19;;;17.75;100.00
35989;BME280;22064;42.672;23.282;2023-09-08T02:46:16;95109.06;;;17.71;100.00
35989;BME280;22064;42.672;23.282;2023-09-08T02:48:42;95100.69;;;17.64;100.00
35989;BME280;22064;42.672;23.282;2023-09-08T02:51:08;95113.34;;;17.62;100.00
35989;BME280;22064;42.672;23.282;2023-09-08T02:53:34;95113.41;;;17.57;100.00
35989;BME280;22064;42.672;23.282;2023-09-08T02:56:00;95113.94;;;17.54;100.00
35989;BME280;22064;42.672;23.282;2023-09-08T02:58:26;95112.41;;;17.48;100.00
35989;BME280;22064;42.672;23.282;2023-09-08T03:00:53;95110.25;;;17.50;100.00
35989;BME280;22064;42.672;23.282;2023-09-08T03:03:19;95110.81;;;17.47;100.00
35989;BME280;22064;42.672;23.282;2023-09-08T03:05:45;95106.38;;;17.42;100.00
35989;BME280;22064;42.672;23.282;2023-09-08T03:08:12;95107.72;;;17.35;100.00
35989;BME280;22064;42.672;23.282;2023-09-08T03:10:40;95116.16;;;17.37;100.00
35989;BME280;22064;42.672;23.282;2023-09-08T03:13:06;95100.38;;;17.31;100.00
35989;BME280;22064;42.672;23.282;2023-09-08T03:15:34;95094.94;;;17.18;100.00
35989;BME280;22064;42.672;23.282;2023-09-08T03:18:00;95095.47;;;17.15;100.00
35989;BME280;22064;42.672;23.282;2023-09-08T03:20:26;95105.19;;;17.19;100.00
35989;BME280;22064;42.672;23.282;2023-09-08T03:22:54;95102.84;;;17.18;100.00
35989;BME280;22064;42.672;23.282;2023-09-08T03:25:21;95107.63;;;17.11;100.00
35989;BME280;22064;42.672;23.282;2023-09-08T03:27:47;95100.81;;;17.04;100.00
35989;BME280;22064;42.672;23.282;2023-09-08T03:30:13;95106.59;;;17.01;100.00
35989;BME280;22064;42.672;23.282;2023-09-08T03:32:39;95114.22;;;17.03;100.00
35989;BME280;22064;42.672;23.282;2023-09-08T03:35:05;95116.84;;;17.03;100.00
35989;BME280;22064;42.672;23.282;2023-09-08T03:37:36;95116.88;;;16.98;100.00
35989;BME280;22064;42.672;23.282;2023-09-08T03:40:02;95121.63;;;16.91;100.00
35989;BME280;22064;42.672;23.282;2023-09-08T03:42:31;95092.75;;;16.70;100.00
35989;BME280;22064;42.672;23.282;2023-09-08T03:44:56;95126.34;;;16.99;100.00
35989;BME280;22064;42.672;23.282;2023-09-08T03:47:23;95133.44;;;16.98;100.00
35989;BME280;22064;42.672;23.282;2023-09-08T03:49:50;95116.13;;;16.92;100.00
35989;BME280;22064;42.672;23.282;2023-09-08T03:52:16;95119.00;;;16.91;100.00
35989;BME280;22064;42.672;23.282;2023-09-08T03:54:42;95123.75;;;16.89;100.00
35989;BME280;22064;42.672;23.282;2023-09-08T03:57:09;95133.75;;;16.87;100.00
35989;BME280;22064;42.672;23.282;2023-09-08T03:59:35;95121.94;;;16.74;100.00
35989;BME280;22064;42.672;23.282;2023-09-08T04:02:00;95121.69;;;16.80;100.00
35989;BME280;22064;42.672;23.282;2023-09-08T04:04:27;95123.78;;;16.78;100.00
35989;BME280;22064;42.672;23.282;2023-09-08T04:06:52;95126.41;;;16.78;100.00
35989;BME280;22064;42.672;23.282;2023-09-08T04:09:18;95128.22;;;16.73;100.00
35989;BME280;22064;42.672;23.282;2023-09-08T04:11:44;95127.44;;;16.72;100.00
35989;BME280;22064;42.672;23.282;2023-09-08T04:14:10;95131.16;;;16.66;100.00
35989;BME280;22064;42.672;23.282;2023-09-08T04:16:36;95114.09;;;16.53;100.00
35989;BME280;22064;42.672;23.282;2023-09-08T04:19:02;95121.19;;;16.58;100.00
35989;BME280;22064;42.672;23.282;2023-09-08T04:21:28;95125.91;;;16.61;100.00
35989;BME280;22064;42.672;23.282;2023-09-08T04:23:54;95121.44;;;16.56;100.00
35989;BME280;22064;42.672;23.282;2023-09-08T04:26:20;95132.50;;;16.58;100.00
35989;BME280;22064;42.672;23.282;2023-09-08T04:28:46;95135.91;;;16.64;100.00
35989;BME280;22064;42.672;23.282;2023-09-08T04:31:12;95135.13;;;16.63;100.00
35989;BME280;22064;42.672;23.282;2023-09-08T04:33:38;95133.53;;;16.68;100.00
35989;BME280;22064;42.672;23.282;2023-09-08T04:36:04;95138.50;;;16.74;100.00
35989;BME280;22064;42.672;23.282;2023-09-08T04:38:30;95129.28;;;16.72;100.00
35989;BME280;22064;42.672;23.282;2023-09-08T04:40:56;95135.06;;;16.79;100.00
35989;BME280;22064;42.672;23.282;2023-09-08T04:43:22;95144.50;;;16.95;100.00
35989;BME280;22064;42.672;23.282;2023-09-08T04:45:48;95143.97;;;16.98;100.00
35989;BME280;22064;42.672;23.282;2023-09-08T04:48:14;95132.56;;;17.13;100.00
35989;BME280;22064;42.672;23.282;2023-09-08T04:50:40;95141.75;;;17.26;100.00
35989;BME280;22064;42.672;23.282;2023-09-08T04:53:05;95137.72;;;17.39;100.00
35989;BME280;22064;42.672;23.282;2023-09-08T04:55:31;95131.09;;;17.41;100.00
35989;BME280;22064;42.672;23.282;2023-09-08T04:57:57;95133.97;;;17.50;100.00
35989;BME280;22064;42.672;23.282;2023-09-08T05:00:24;95136.00;;;17.63;100.00
35989;BME280;22064;42.672;23.282;2023-09-08T05:02:50;95133.06;;;17.70;100.00
35989;BME280;22064;42.672;23.282;2023-09-08T05:05:16;95138.19;;;17.90;100.00
35989;BME280;22064;42.672;23.282;2023-09-08T05:07:42;95140.50;;;17.97;100.00
35989;BME280;22064;42.672;23.282;2023-09-08T05:10:08;95144.13;;;18.06;100.00
35989;BME280;22064;42.672;23.282;2023-09-08T05:12:36;95144.50;;;18.23;100.00
35989;BME280;22064;42.672;23.282;2023-09-08T05:15:02;95134.63;;;18.39;100.00
35989;BME280;22064;42.672;23.282;2023-09-08T05:17:34;95139.97;;;18.58;100.00
35989;BME280;22064;42.672;23.282;2023-09-08T05:20:01;95137.28;;;18.63;100.00
35989;BME280;22064;42.672;23.282;2023-09-08T05:22:28;95130.94;;;18.64;100.00
35989;BME280;22064;42.672;23.282;2023-09-08T05:24:54;95137.44;;;18.72;100.00
35989;BME280;22064;42.672;23.282;2023-09-08T05:27:20;95127.41;;;18.74;100.00
35989;BME280;22064;42.672;23.282;2023-09-08T05:29:46;95144.16;;;18.88;100.00
35989;BME280;22064;42.672;23.282;2023-09-08T05:32:12;95133.81;;;18.92;100.00
35989;BME280;22064;42.672;23.282;2023-09-08T05:34:39;95136.69;;;18.96;100.00
35989;BME280;22064;42.672;23.282;2023-09-08T05:37:05;95135.16;;;19.13;100.00
35989;BME280;22064;42.672;23.282;2023-09-08T05:39:32;95135.00;;;19.24;100.00
35989;BME280;22064;42.672;23.282;2023-09-08T05:41:58;95133.88;;;19.30;100.00
35989;BME280;22064;42.672;23.282;2023-09-08T05:44:24;95139.69;;;19.51;100.00
35989;BME280;22064;42.672;23.282;2023-09-08T05:46:52;95144.09;;;19.55;100.00
35989;BME280;22064;42.672;23.282;2023-09-08T05:49:18;95135.81;;;19.43;100.00
35989;BME280;22064;42.672;23.282;2023-09-08T05:51:44;95120.09;;;19.33;100.00
35989;BME280;22064;42.672;23.282;2023-09-08T05:54:10;95140.03;;;19.44;100.00
35989;BME280;22064;42.672;23.282;2023-09-08T05:56:37;95148.03;;;19.58;100.00
35989;BME280;22064;42.672;23.282;2023-09-08T05:59:04;95145.53;;;19.48;100.00
35989;BME280;22064;42.672;23.282;2023-09-08T06:01:30;95160.31;;;19.68;100.00
35989;BME280;22064;42.672;23.282;2023-09-08T06:03:57;95155.56;;;19.70;100.00
35989;BME280;22064;42.672;23.282;2023-09-08T06:06:25;95160.25;;;19.73;100.00
35989;BME280;22064;42.672;23.282;2023-09-08T06:08:52;95159.31;;;19.82;100.00
35989;BME280;22064;42.672;23.282;2023-09-08T06:11:18;95166.94;;;19.84;100.00
35989;BME280;22064;42.672;23.282;2023-09-08T06:13:43;95158.44;;;19.87;100.00
35989;BME280;22064;42.672;23.282;2023-09-08T06:16:09;95148.69;;;19.88;100.00
35989;BME280;22064;42.672;23.282;2023-09-08T06:18:35;95165.19;;;20.12;100.00
35989;BME280;22064;42.672;23.282;2023-09-08T06:21:08;95166.59;;;20.10;100.00
35989;BME280;22064;42.672;23.282;2023-09-08T06:23:34;95163.97;;;20.23;100.00
35989;BME280;22064;42.672;23.282;2023-09-08T06:26:02;95171.94;;;20.37;100.00
35989;BME280;22064;42.672;23.282;2023-09-08T06:28:31;95182.56;;;20.51;100.00
35989;BME280;22064;42.672;23.282;2023-09-08T06:30:57;95169.56;;;20.55;100.00
35989;BME280;22064;42.672;23.282;2023-09-08T06:33:23;95187.56;;;20.52;100.00
35989;BME280;22064;42.672;23.282;2023-09-08T06:35:50;95180.72;;;20.51;100.00
35989;BME280;22064;42.672;23.282;2023-09-08T06:38:15;95179.34;;;20.54;100.00
35989;BME280;22064;42.672;23.282;2023-09-08T06:40:41;95184.84;;;20.71;100.00
35989;BME280;22064;42.672;23.282;2023-09-08T06:43:07;95183.81;;;20.72;100.00
35989;BME280;22064;42.672;23.282;2023-09-08T06:45:47;95174.28;;;20.99;100.00
35989;BME280;22064;42.672;23.282;2023-09-08T06:48:15;95183.31;;;21.12;100.00
35989;BME280;22064;42.672;23.282;2023-09-08T06:50:42;95175.97;;;21.09;100.00
35989;BME280;22064;42.672;23.282;2023-09-08T06:53:08;95175.38;;;21.26;100.00
35989;BME280;22064;42.672;23.282;2023-09-08T06:55:34;95184.00;;;21.59;100.00
35989;BME280;22064;42.672;23.282;2023-09-08T06:58:01;95174.44;;;21.72;93.42
35989;BME280;22064;42.672;23.282;2023-09-08T07:00:26;95180.03;;;21.70;91.44
35989;BME280;22064;42.672;23.282;2023-09-08T07:02:53;95194.84;;;21.71;89.38
35989;BME280;22064;42.672;23.282;2023-09-08T07:05:19;95186.78;;;21.76;88.56
35989;BME280;22064;42.672;23.282;2023-09-08T07:07:46;95185.59;;;21.82;87.74
35989;BME280;22064;42.672;23.282;2023-09-08T07:10:12;95183.91;;;21.86;80.96
35989;BME280;22064;42.672;23.282;2023-09-08T07:12:38;95189.41;;;21.90;81.19
35989;BME280;22064;42.672;23.282;2023-09-08T07:15:05;95165.09;;;21.74;78.73
35989;BME280;22064;42.672;23.282;2023-09-08T07:17:32;95186.75;;;22.12;80.37
35989;BME280;22064;42.672;23.282;2023-09-08T07:19:58;95192.88;;;22.35;79.56
35989;BME280;22064;42.672;23.282;2023-09-08T07:22:24;95192.41;;;22.65;75.30
35989;BME280;22064;42.672;23.282;2023-09-08T07:24:50;95194.06;;;22.83;73.44
35989;BME280;22064;42.672;23.282;2023-09-08T07:27:16;95178.09;;;22.74;71.29
35989;BME280;22064;42.672;23.282;2023-09-08T07:29:43;95188.94;;;22.87;67.25
35989;BME280;22064;42.672;23.282;2023-09-08T07:32:10;95181.53;;;22.75;65.84
35989;BME280;22064;42.672;23.282;2023-09-08T07:34:37;95185.88;;;22.71;64.77
35989;BME280;22064;42.672;23.282;2023-09-08T07:37:03;95181.44;;;22.57;65.62
35989;BME280;22064;42.672;23.282;2023-09-08T07:39:29;95182.09;;;22.63;67.52
35989;BME280;22064;42.672;23.282;2023-09-08T07:41:56;95182.03;;;22.86;65.40
35989;BME280;22064;42.672;23.282;2023-09-08T07:44:22;95178.31;;;22.87;63.78
35989;BME280;22064;42.672;23.282;2023-09-08T07:46:48;95186.06;;;22.74;65.77
35989;BME280;22064;42.672;23.282;2023-09-08T07:49:18;95184.00;;;22.94;65.07
35989;BME280;22064;42.672;23.282;2023-09-08T07:51:47;95182.66;;;22.82;64.00
35989;BME280;22064;42.672;23.282;2023-09-08T07:54:13;95175.56;;;23.00;64.96
35989;BME280;22064;42.672;23.282;2023-09-08T07:56:39;95179.69;;;23.15;63.82
35989;BME280;22064;42.672;23.282;2023-09-08T07:59:07;95173.75;;;23.18;62.75
35989;BME280;22064;42.672;23.282;2023-09-08T08:01:32;95181.75;;;23.36;63.00
35989;BME280;22064;42.672;23.282;2023-09-08T08:03:58;95180.88;;;23.49;61.75
35989;BME280;22064;42.672;23.282;2023-09-08T08:06:24;95174.31;;;23.46;60.67
35989;BME280;22064;42.672;23.282;2023-09-08T08:08:50;95170.34;;;23.18;59.31
35989;BME280;22064;42.672;23.282;2023-09-08T08:11:16;95167.06;;;23.29;61.31
35989;BME280;22064;42.672;23.282;2023-09-08T08:13:47;95156.19;;;23.66;60.42
35989;BME280;22064;42.672;23.282;2023-09-08T08:16:13;95175.59;;;23.92;58.59
35989;BME280;22064;42.672;23.282;2023-09-08T08:18:39;95164.34;;;23.87;56.98
35989;BME280;22064;42.672;23.282;2023-09-08T08:21:05;95168.25;;;23.89;56.53
35989;BME280;22064;42.672;23.282;2023-09-08T08:23:31;95166.50;;;24.11;56.16
35989;BME280;22064;42.672;23.282;2023-09-08T08:25:58;95172.59;;;24.29;55.01
35989;BME280;22064;42.672;23.282;2023-09-08T08:28:23;95163.22;;;24.23;54.84
35989;BME280;22064;42.672;23.282;2023-09-08T08:30:53;95165.09;;;24.31;54.56
35989;BME280;22064;42.672;23.282;2023-09-08T08:33:18;95158.16;;;24.64;53.43
35989;BME280;22064;42.672;23.282;2023-09-08T08:35:50;95166.72;;;24.70;53.24
35989;BME280;22064;42.672;23.282;2023-09-08T08:38:16;95154.75;;;24.38;52.92
35989;BME280;22064;42.672;23.282;2023-09-08T08:40:42;95159.94;;;24.17;53.75
35989;BME280;22064;42.672;23.282;2023-09-08T08:43:09;95148.81;;;24.24;52.65
35989;BME280;22064;42.672;23.282;2023-09-08T08:45:37;95146.75;;;24.29;53.01
35989;BME280;22064;42.672;23.282;2023-09-08T08:48:05;95151.63;;;24.45;53.29
35989;BME280;22064;42.672;23.282;2023-09-08T08:50:37;95155.06;;;24.45;53.65
35989;BME280;22064;42.672;23.282;2023-09-08T08:53:04;95150.34;;;24.59;53.07
35989;BME280;22064;42.672;23.282;2023-09-08T08:55:30;95146.38;;;25.04;52.42
35989;BME280;22064;42.672;23.282;2023-09-08T08:58:03;95143.03;;;25.24;49.67
35989;BME280;22064;42.672;23.282;2023-09-08T09:00:29;95142.09;;;25.20;49.58
35989;BME280;22064;42.672;23.282;2023-09-08T09:02:56;95134.59;;;24.75;50.52
35989;BME280;22064;42.672;23.282;2023-09-08T09:05:24;95139.63;;;25.06;49.91
35989;BME280;22064;42.672;23.282;2023-09-08T09:07:50;95141.34;;;25.11;49.51
35989;BME280;22064;42.672;23.282;2023-09-08T09:10:17;95146.72;;;25.32;49.02
35989;BME280;22064;42.672;23.282;2023-09-08T09:12:43;95144.84;;;25.32;48.07
35989;BME280;22064;42.672;23.282;2023-09-08T09:15:09;95148.50;;;25.28;47.86
35989;BME280;22064;42.672;23.282;2023-09-08T09:17:36;95137.19;;;25.31;47.79
35989;BME280;22064;42.672;23.282;2023-09-08T09:20:14;95157.59;;;25.27;47.75
35989;BME280;22064;42.672;23.282;2023-09-08T09:22:41;95154.19;;;25.18;48.20
35989;BME280;22064;42.672;23.282;2023-09-08T09:25:08;95141.53;;;25.15;48.29
35989;BME280;22064;42.672;23.282;2023-09-08T09:27:34;95134.34;;;25.36;47.51
35989;BME280;22064;42.672;23.282;2023-09-08T09:30:06;95137.34;;;25.55;46.94
35989;BME280;22064;42.672;23.282;2023-09-08T09:32:34;95137.84;;;25.49;46.71
35989;BME280;22064;42.672;23.282;2023-09-08T09:35:00;95135.50;;;24.88;47.46
35989;BME280;22064;42.672;23.282;2023-09-08T09:37:32;95134.56;;;24.84;48.24
35989;BME280;22064;42.672;23.282;2023-09-08T09:40:00;95140.75;;;25.05;47.38
35989;BME280;22064;42.672;23.282;2023-09-08T09:42:27;95151.75;;;25.33;46.76
35989;BME280;22064;42.672;23.282;2023-09-08T09:44:53;95138.75;;;25.53;46.26
35989;BME280;22064;42.672;23.282;2023-09-08T09:47:20;95140.72;;;25.65;46.35
35989;BME280;22064;42.672;23.282;2023-09-08T09:49:47;95138.84;;;25.65;46.19
35989;BME280;22064;42.672;23.282;2023-09-08T09:52:14;95126.28;;;25.66;46.25
35989;BME280;22064;42.672;23.282;2023-09-08T09:54:45;95130.41;;;25.84;45.87
35989;BME280;22064;42.672;23.282;2023-09-08T09:57:13;95127.75;;;25.54;46.73
35989;BME280;22064;42.672;23.282;2023-09-08T09:59:40;95127.56;;;25.39;47.28
35989;BME280;22064;42.672;23.282;2023-09-08T10:02:13;95121.97;;;25.02;48.48
35989;BME280;22064;42.672;23.282;2023-09-08T10:04:42;95129.13;;;25.10;48.73
35989;BME280;22064;42.672;23.282;2023-09-08T10:07:09;95132.03;;;25.26;48.82
35989;BME280;22064;42.672;23.282;2023-09-08T10:09:38;95125.91;;;24.96;48.53
35989;BME280;22064;42.672;23.282;2023-09-08T10:12:04;95126.59;;;24.84;49.72
35989;BME280;22064;42.672;23.282;2023-09-08T10:14:32;95113.34;;;24.66;50.16
35989;BME280;22064;42.672;23.282;2023-09-08T10:17:01;95122.22;;;24.79;50.69
35989;BME280;22064;42.672;23.282;2023-09-08T10:19:28;95111.16;;;24.69;50.69
35989;BME280;22064;42.672;23.282;2023-09-08T10:21:59;95121.53;;;24.61;51.40
35989;BME280;22064;42.672;23.282;2023-09-08T10:24:32;95111.16;;;24.60;51.41
35989;BME280;22064;42.672;23.282;2023-09-08T10:27:10;95100.84;;;24.58;51.97
35989;BME280;22064;42.672;23.282;2023-09-08T10:29:37;95114.28;;;24.71;51.96
35989;BME280;22064;42.672;23.282;2023-09-08T10:32:06;95105.06;;;24.59;52.90
35989;BME280;22064;42.672;23.282;2023-09-08T10:34:34;95111.25;;;24.81;51.96
35989;BME280;22064;42.672;23.282;2023-09-08T10:37:01;95103.16;;;24.98;52.17
35989;BME280;22064;42.672;23.282;2023-09-08T10:47:22;95100.09;;;24.87;53.60
35989;BME280;22064;42.672;23.282;2023-09-08T10:49:49;95103.13;;;24.77;53.02
35989;BME280;22064;42.672;23.282;2023-09-08T10:52:21;95104.09;;;24.64;53.60
35989;BME280;22064;42.672;23.282;2023-09-08T10:54:49;95111.34;;;24.55;53.90
35989;BME280;22064;42.672;23.282;2023-09-08T10:57:16;95097.22;;;24.63;53.75
35989;BME280;22064;42.672;23.282;2023-09-08T11:00:00;95096.63;;;24.96;53.17
35989;BME280;22064;42.672;23.282;2023-09-08T11:02:48;95089.00;;;25.06;51.49
35989;BME280;22064;42.672;23.282;2023-09-08T11:05:15;95089.78;;;24.86;51.99
35989;BME280;22064;42.672;23.282;2023-09-08T11:07:43;95085.56;;;24.47;52.74
35989;BME280;22064;42.672;23.282;2023-09-08T11:10:10;95094.31;;;24.30;53.75
35989;BME280;22064;42.672;23.282;2023-09-08T11:12:36;95080.13;;;24.17;54.57
35989;BME280;22064;42.672;23.282;2023-09-08T11:15:06;95084.22;;;24.14;55.30
35989;BME280;22064;42.672;23.282;2023-09-08T11:17:37;95075.88;;;24.25;55.33
35989;BME280;22064;42.672;23.282;2023-09-08T11:20:08;95081.47;;;24.40;55.79
35989;BME280;22064;42.672;23.282;2023-09-08T11:22:37;95083.41;;;24.23;55.87
35989;BME280;22064;42.672;23.282;2023-09-08T11:25:06;95069.09;;;24.45;55.89
35989;BME280;22064;42.672;23.282;2023-09-08T11:27:33;95066.00;;;24.34;54.55
35989;BME280;22064;42.672;23.282;2023-09-08T11:30:00;95068.06;;;24.66;54.68
35989;BME280;22064;42.672;23.282;2023-09-08T11:32:32;95065.53;;;24.70;54.04
35989;BME280;22064;42.672;23.282;2023-09-08T11:35:05;95072.16;;;24.64;53.86
35989;BME280;22064;42.672;23.282;2023-09-08T11:37:41;95060.66;;;24.81;54.46
35989;BME280;22064;42.672;23.282;2023-09-08T11:40:08;95067.94;;;25.43;53.51
35989;BME280;22064;42.672;23.282;2023-09-08T11:42:35;95068.53;;;25.49;52.01
35989;BME280;22064;42.672;23.282;2023-09-08T11:45:01;95058.13;;;25.14;52.04
35989;BME280;22064;42.672;23.282;2023-09-08T11:47:29;95067.84;;;25.10;52.61
35989;BME280;22064;42.672;23.282;2023-09-08T11:49:57;95053.31;;;25.28;52.36
35989;BME280;22064;42.672;23.282;2023-09-08T11:52:23;95062.09;;;25.71;51.36
35989;BME280;22064;42.672;23.282;2023-09-08T11:54:51;95061.09;;;25.96;50.47
35989;BME280;22064;42.672;23.282;2023-09-08T11:57:17;95049.75;;;25.99;49.59
35989;BME280;22064;42.672;23.282;2023-09-08T11:59:44;95052.59;;;26.27;49.00
35989;BME280;22064;42.672;23.282;2023-09-08T12:02:14;95051.75;;;26.60;48.37
35989;BME280;22064;42.672;23.282;2023-09-08T12:04:40;95058.31;;;26.75;48.23
35989;BME280;22064;42.672;23.282;2023-09-08T12:07:12;95045.16;;;26.94;47.73
35989;BME280;22064;42.672;23.282;2023-09-08T12:09:42;95047.50;;;27.08;47.18
35989;BME280;22064;42.672;23.282;2023-09-08T12:12:12;95046.41;;;26.85;46.77
35989;BME280;22064;42.672;23.282;2023-09-08T12:14:41;95036.72;;;27.17;46.33
35989;BME280;22064;42.672;23.282;2023-09-08T12:17:08;95037.97;;;26.83;45.91
35989;BME280;22064;42.672;23.282;2023-09-08T12:19:34;95047.72;;;27.03;45.50
35989;BME280;22064;42.672;23.282;2023-09-08T12:22:03;95047.38;;;27.29;44.75
35989;BME280;22064;42.672;23.282;2023-09-08T12:27:18;95048.84;;;26.90;44.89
35989;BME280;22064;42.672;23.282;2023-09-08T12:29:56;95029.09;;;27.07;44.84
35989;BME280;22064;42.672;23.282;2023-09-08T12:32:24;95026.03;;;26.92;45.15
35989;BME280;22064;42.672;23.282;2023-09-08T12:34:54;95033.59;;;27.15;44.67
35989;BME280;22064;42.672;23.282;2023-09-08T12:37:24;95030.63;;;27.45;44.38
35989;BME280;22064;42.672;23.282;2023-09-08T12:39:53;95016.50;;;27.32;43.41
35989;BME280;22064;42.672;23.282;2023-09-08T12:42:22;95018.41;;;27.19;43.97
35989;BME280;22064;42.672;23.282;2023-09-08T12:44:51;95010.97;;;27.53;43.25
35989;BME280;22064;42.672;23.282;2023-09-08T12:47:18;95012.19;;;27.83;42.47
35989;BME280;22064;42.672;23.282;2023-09-08T12:49:44;95017.25;;;28.17;42.35
35989;BME280;22064;42.672;23.282;2023-09-08T12:52:10;95015.03;;;27.91;41.55
35989;BME280;22064;42.672;23.282;2023-09-08T12:54:36;95015.44;;;27.77;41.67
35989;BME280;22064;42.672;23.282;2023-09-08T12:57:02;95012.56;;;27.70;42.42
35989;BME280;22064;42.672;23.282;2023-09-08T12:59:28;95026.63;;;27.95;42.38